sensor_id;sensor_type;location;lat;lon;timestamp;pressure;altitude;pressure_sealevel;temperature;humidity
30819;BME280;17546;42.674;23.284;2023-04-28T00:02:16;94896.41;;;14.09;31.06
30819;BME280;17546;42.674;23.284;2023-04-28T00:04:42;94960.75;;;14.41;30.83
30819;BME280;17546;42.674;23.284;2023-04-28T00:07:08;94940.66;;;14.60;30.92
30819;BME280;17546;42.674;23.284;2023-04-28T00:09:34;94896.56;;;14.22;31.12
30819;BME280;17546;42.674;23.284;2023-04-28T00:11:59;94911.00;;;14.21;30.98
30819;BME280;17546;42.674;23.284;2023-04-28T00:14:26;94903.13;;;14.25;31.04
30819;BME280;17546;42.674;23.284;2023-04-28T00:16:52;94903.13;;;13.83;31.47
30819;BME280;17546;42.674;23.284;2023-04-28T00:19:22;94909.34;;;14.01;31.60
30819;BME280;17546;42.674;23.284;2023-04-28T00:21:47;94886.34;;;13.95;31.01
30819;BME280;17546;42.674;23.284;2023-04-28T00:24:13;94898.06;;;13.82;31.26
30819;BME280;17546;42.674;23.284;2023-04-28T00:26:41;94906.47;;;13.71;31.56
30819;BME280;17546;42.674;23.284;2023-04-28T00:29:07;94921.81;;;13.89;31.57
30819;BME280;17546;42.674;23.284;2023-04-28T00:31:33;94947.78;;;14.08;31.50
30819;BME280;17546;42.674;23.284;2023-04-28T00:33:59;94879.97;;;13.53;31.68
30819;BME280;17546;42.674;23.284;2023-04-28T00:36:27;94900.81;;;13.88;31.10
30819;BME280;17546;42.674;23.284;2023-04-28T00:38:57;94900.81;;;13.88;31.37
30819;BME280;17546;42.674;23.284;2023-04-28T00:41:22;94909.13;;;13.93;31.45
30819;BME280;17546;42.674;23.284;2023-04-28T00:43:57;94890.91;;;13.92;31.70
30819;BME280;17546;42.674;23.284;2023-04-28T00:46:30;94919.19;;;14.08;31.25
30819;BME280;17546;42.674;23.284;2023-04-28T00:48:58;94924.00;;;14.07;31.65
30819;BME280;17546;42.674;23.284;2023-04-28T00:51:24;94895.25;;;13.88;31.23
30819;BME280;17546;42.674;23.284;2023-04-28T00:53:52;94949.56;;;14.11;31.29
30819;BME280;17546;42.674;23.284;2023-04-28T00:56:23;94936.69;;;14.02;31.48
30819;BME280;17546;42.674;23.284;2023-04-28T00:58:51;94913.44;;;13.94;31.31
30819;BME280;17546;42.674;23.284;2023-04-28T01:01:17;94930.47;;;13.85;31.68
30819;BME280;17546;42.674;23.284;2023-04-28T01:03:43;94973.34;;;14.12;31.60
30819;BME280;17546;42.674;23.284;2023-04-28T01:06:09;94948.34;;;14.01;31.52
30819;BME280;17546;42.674;23.284;2023-04-28T01:08:38;94914.81;;;13.76;31.40
30819;BME280;17546;42.674;23.284;2023-04-28T01:11:04;94921.09;;;13.82;31.32
30819;BME280;17546;42.674;23.284;2023-04-28T01:13:31;94954.47;;;13.94;31.50
30819;BME280;17546;42.674;23.284;2023-04-28T01:15:57;94940.84;;;13.84;31.55
30819;BME280;17546;42.674;23.284;2023-04-28T01:18:23;94916.38;;;13.66;31.72
30819;BME280;17546;42.674;23.284;2023-04-28T01:20:51;94950.81;;;13.63;31.57
30819;BME280;17546;42.674;23.284;2023-04-28T01:23:17;94931.81;;;13.67;31.61
30819;BME280;17546;42.674;23.284;2023-04-28T01:25:43;94917.41;;;13.63;31.44
30819;BME280;17546;42.674;23.284;2023-04-28T01:28:10;94916.91;;;13.59;31.61
30819;BME280;17546;42.674;23.284;2023-04-28T01:30:36;94919.69;;;13.53;31.45
30819;BME280;17546;42.674;23.284;2023-04-28T01:33:02;94917.94;;;13.50;31.28
30819;BME280;17546;42.674;23.284;2023-04-28T01:35:28;94908.38;;;13.40;31.38
30819;BME280;17546;42.674;23.284;2023-04-28T01:37:54;94908.00;;;13.66;31.12
30819;BME280;17546;42.674;23.284;2023-04-28T01:40:20;94920.19;;;13.63;31.13
30819;BME280;17546;42.674;23.284;2023-04-28T01:42:46;94931.81;;;13.56;31.39
30819;BME280;17546;42.674;23.284;2023-04-28T01:45:12;94988.88;;;13.91;30.97
30819;BME280;17546;42.674;23.284;2023-04-28T01:47:37;94909.94;;;13.30;31.48
30819;BME280;17546;42.674;23.284;2023-04-28T01:50:04;94940.41;;;13.58;31.46
30819;BME280;17546;42.674;23.284;2023-04-28T01:52:30;94976.50;;;13.86;31.17
30819;BME280;17546;42.674;23.284;2023-04-28T01:54:56;94915.75;;;13.15;31.42
30819;BME280;17546;42.674;23.284;2023-04-28T01:57:24;94917.00;;;13.36;31.42
30819;BME280;17546;42.674;23.284;2023-04-28T01:59:50;94984.66;;;13.73;31.69
30819;BME280;17546;42.674;23.284;2023-04-28T02:02:17;94967.03;;;13.42;31.71
30819;BME280;17546;42.674;23.284;2023-04-28T02:04:43;94979.72;;;13.43;31.79
30819;BME280;17546;42.674;23.284;2023-04-28T02:07:09;94939.75;;;13.18;31.89
30819;BME280;17546;42.674;23.284;2023-04-28T02:09:34;94922.59;;;13.02;31.86
30819;BME280;17546;42.674;23.284;2023-04-28T02:12:00;94938.75;;;13.21;31.70
30819;BME280;17546;42.674;23.284;2023-04-28T02:14:27;94937.28;;;12.86;32.11
30819;BME280;17546;42.674;23.284;2023-04-28T02:16:53;94934.03;;;12.71;32.77
30819;BME280;17546;42.674;23.284;2023-04-28T02:19:18;94997.69;;;13.25;32.56
30819;BME280;17546;42.674;23.284;2023-04-28T02:21:44;94946.88;;;13.02;32.69
30819;BME280;17546;42.674;23.284;2023-04-28T02:24:11;94935.78;;;12.96;32.53
30819;BME280;17546;42.674;23.284;2023-04-28T02:26:36;94927.41;;;12.85;32.60
30819;BME280;17546;42.674;23.284;2023-04-28T02:29:02;94935.75;;;13.08;32.36
30819;BME280;17546;42.674;23.284;2023-04-28T02:31:28;94947.91;;;12.82;32.73
30819;BME280;17546;42.674;23.284;2023-04-28T02:33:54;94960.00;;;13.07;32.54
30819;BME280;17546;42.674;23.284;2023-04-28T02:36:20;94939.28;;;13.02;32.42
30819;BME280;17546;42.674;23.284;2023-04-28T02:38:46;95006.25;;;13.50;32.37
30819;BME280;17546;42.674;23.284;2023-04-28T02:41:12;94953.97;;;12.97;32.25
30819;BME280;17546;42.674;23.284;2023-04-28T02:43:39;94962.00;;;13.29;32.16
30819;BME280;17546;42.674;23.284;2023-04-28T02:46:05;95004.22;;;13.50;32.16
30819;BME280;17546;42.674;23.284;2023-04-28T02:48:31;94943.56;;;13.09;32.02
30819;BME280;17546;42.674;23.284;2023-04-28T02:51:00;94977.97;;;13.06;32.41
30819;BME280;17546;42.674;23.284;2023-04-28T02:53:26;95002.69;;;13.55;31.97
30819;BME280;17546;42.674;23.284;2023-04-28T02:55:52;94987.31;;;13.37;32.09
30819;BME280;17546;42.674;23.284;2023-04-28T02:58:18;94963.81;;;13.10;32.06
30819;BME280;17546;42.674;23.284;2023-04-28T03:00:44;94976.94;;;13.26;32.10
30819;BME280;17546;42.674;23.284;2023-04-28T03:03:11;95019.09;;;13.64;31.97
30819;BME280;17546;42.674;23.284;2023-04-28T03:05:36;94980.97;;;13.25;31.88
30819;BME280;17546;42.674;23.284;2023-04-28T03:08:03;94954.97;;;12.83;31.96
30819;BME280;17546;42.674;23.284;2023-04-28T03:10:29;94957.75;;;12.83;32.17
30819;BME280;17546;42.674;23.284;2023-04-28T03:12:55;95018.91;;;13.17;32.22
30819;BME280;17546;42.674;23.284;2023-04-28T03:15:23;95023.22;;;13.07;32.47
30819;BME280;17546;42.674;23.284;2023-04-28T03:17:48;94952.22;;;12.44;32.55
30819;BME280;17546;42.674;23.284;2023-04-28T03:20:14;94983.81;;;12.86;32.33
30819;BME280;17546;42.674;23.284;2023-04-28T03:22:53;94973.66;;;12.54;32.61
30819;BME280;17546;42.674;23.284;2023-04-28T03:25:18;94964.53;;;12.26;32.76
30819;BME280;17546;42.674;23.284;2023-04-28T03:27:44;94999.44;;;12.44;32.61
30819;BME280;17546;42.674;23.284;2023-04-28T03:30:13;95004.72;;;12.47;32.63
30819;BME280;17546;42.674;23.284;2023-04-28T03:32:39;94989.78;;;12.22;32.92
30819;BME280;17546;42.674;23.284;2023-04-28T03:35:08;95052.91;;;12.16;33.40
30819;BME280;17546;42.674;23.284;2023-04-28T03:37:40;95011.97;;;11.99;33.37
30819;BME280;17546;42.674;23.284;2023-04-28T03:40:06;95049.09;;;12.13;33.75
30819;BME280;17546;42.674;23.284;2023-04-28T03:42:32;95032.19;;;12.11;33.31
30819;BME280;17546;42.674;23.284;2023-04-28T03:44:59;95036.72;;;12.09;33.32
30819;BME280;17546;42.674;23.284;2023-04-28T03:47:25;95031.53;;;11.85;33.52
30819;BME280;17546;42.674;23.284;2023-04-28T03:49:51;95010.53;;;11.67;33.75
30819;BME280;17546;42.674;23.284;2023-04-28T03:52:16;94998.03;;;11.94;33.04
30819;BME280;17546;42.674;23.284;2023-04-28T03:54:42;95068.34;;;12.34;33.19
30819;BME280;17546;42.674;23.284;2023-04-28T03:57:08;95029.94;;;12.15;32.97
30819;BME280;17546;42.674;23.284;2023-04-28T03:59:43;95077.91;;;12.22;32.92
30819;BME280;17546;42.674;23.284;2023-04-28T04:02:08;95033.88;;;11.92;32.93
30819;BME280;17546;42.674;23.284;2023-04-28T04:04:34;95045.53;;;12.07;33.03
30819;BME280;17546;42.674;23.284;2023-04-28T04:07:02;95019.00;;;12.01;32.88
30819;BME280;17546;42.674;23.284;2023-04-28T04:09:28;95039.78;;;12.22;32.52
30819;BME280;17546;42.674;23.284;2023-04-28T04:11:54;95099.47;;;12.44;32.81
30819;BME280;17546;42.674;23.284;2023-04-28T04:14:19;95017.56;;;12.22;32.90
30819;BME280;17546;42.674;23.284;2023-04-28T04:16:45;95027.66;;;12.19;32.53
30819;BME280;17546;42.674;23.284;2023-04-28T04:19:21;95025.88;;;12.16;32.61
30819;BME280;17546;42.674;23.284;2023-04-28T04:21:48;95028.84;;;11.96;32.71
30819;BME280;17546;42.674;23.284;2023-04-28T04:24:14;95053.78;;;12.61;32.16
30819;BME280;17546;42.674;23.284;2023-04-28T04:26:42;95063.66;;;12.79;32.18
30819;BME280;17546;42.674;23.284;2023-04-28T04:29:08;95113.47;;;13.11;32.01
30819;BME280;17546;42.674;23.284;2023-04-28T04:31:33;95072.28;;;13.04;31.77
30819;BME280;17546;42.674;23.284;2023-04-28T04:33:59;95087.19;;;12.95;31.88
30819;BME280;17546;42.674;23.284;2023-04-28T04:36:25;95079.75;;;12.42;32.57
30819;BME280;17546;42.674;23.284;2023-04-28T04:38:51;95093.47;;;12.79;32.33
30819;BME280;17546;42.674;23.284;2023-04-28T04:41:17;95070.97;;;12.66;32.25
30819;BME280;17546;42.674;23.284;2023-04-28T04:43:45;95100.50;;;11.92;33.50
30819;BME280;17546;42.674;23.284;2023-04-28T04:46:20;95121.00;;;12.06;33.48
30819;BME280;17546;42.674;23.284;2023-04-28T04:48:47;95074.50;;;11.52;33.93
30819;BME280;17546;42.674;23.284;2023-04-28T04:51:12;95076.78;;;11.91;33.41
30819;BME280;17546;42.674;23.284;2023-04-28T04:53:38;95078.47;;;11.08;34.46
30819;BME280;17546;42.674;23.284;2023-04-28T04:56:03;95115.03;;;11.81;39.55
30819;BME280;17546;42.674;23.284;2023-04-28T04:58:29;95131.38;;;12.71;37.30
30819;BME280;17546;42.674;23.284;2023-04-28T05:00:55;95127.38;;;13.11;32.87
30819;BME280;17546;42.674;23.284;2023-04-28T05:03:20;95124.31;;;12.87;32.68
30819;BME280;17546;42.674;23.284;2023-04-28T05:05:46;95132.88;;;12.72;32.89
30819;BME280;17546;42.674;23.284;2023-04-28T05:08:12;95127.84;;;12.81;32.73
30819;BME280;17546;42.674;23.284;2023-04-28T05:10:38;95134.28;;;12.33;33.53
30819;BME280;17546;42.674;23.284;2023-04-28T05:13:10;95130.13;;;12.06;34.29
30819;BME280;17546;42.674;23.284;2023-04-28T05:15:35;95133.38;;;12.59;33.56
30819;BME280;17546;42.674;23.284;2023-04-28T05:18:01;95137.50;;;12.20;33.91
30819;BME280;17546;42.674;23.284;2023-04-28T05:20:33;95112.13;;;11.96;34.23
30819;BME280;17546;42.674;23.284;2023-04-28T05:22:58;95134.94;;;12.11;34.37
30819;BME280;17546;42.674;23.284;2023-04-28T05:25:25;95120.28;;;12.16;33.98
30819;BME280;17546;42.674;23.284;2023-04-28T05:27:51;95131.09;;;12.69;33.44
30819;BME280;17546;42.674;23.284;2023-04-28T05:30:17;95141.19;;;12.60;33.76
30819;BME280;17546;42.674;23.284;2023-04-28T05:32:42;95147.22;;;12.53;33.96
30819;BME280;17546;42.674;23.284;2023-04-28T05:35:08;95139.94;;;12.61;33.59
30819;BME280;17546;42.674;23.284;2023-04-28T05:37:33;95134.56;;;12.47;34.14
30819;BME280;17546;42.674;23.284;2023-04-28T05:39:59;95118.38;;;12.39;34.12
30819;BME280;17546;42.674;23.284;2023-04-28T05:42:24;95116.53;;;12.19;34.33
30819;BME280;17546;42.674;23.284;2023-04-28T05:44:51;95129.59;;;12.08;34.77
30819;BME280;17546;42.674;23.284;2023-04-28T05:47:16;95130.81;;;12.55;33.99
30819;BME280;17546;42.674;23.284;2023-04-28T05:49:42;95134.59;;;12.58;34.31
30819;BME280;17546;42.674;23.284;2023-04-28T05:52:07;95137.75;;;12.23;34.37
30819;BME280;17546;42.674;23.284;2023-04-28T05:54:33;95140.88;;;12.47;33.79
30819;BME280;17546;42.674;23.284;2023-04-28T05:56:59;95128.16;;;11.81;34.35
30819;BME280;17546;42.674;23.284;2023-04-28T05:59:29;95143.19;;;12.54;33.77
30819;BME280;17546;42.674;23.284;2023-04-28T06:01:55;95140.16;;;12.52;33.36
30819;BME280;17546;42.674;23.284;2023-04-28T06:04:21;95139.81;;;11.85;34.33
30819;BME280;17546;42.674;23.284;2023-04-28T06:06:46;95137.16;;;11.64;34.55
30819;BME280;17546;42.674;23.284;2023-04-28T06:09:11;95148.97;;;11.91;35.02
30819;BME280;17546;42.674;23.284;2023-04-28T06:11:37;95140.78;;;11.82;35.01
30819;BME280;17546;42.674;23.284;2023-04-28T06:14:02;95136.34;;;12.50;34.08
30819;BME280;17546;42.674;23.284;2023-04-28T06:16:33;95140.75;;;12.90;33.30
30819;BME280;17546;42.674;23.284;2023-04-28T06:18:58;95140.97;;;12.75;33.37
30819;BME280;17546;42.674;23.284;2023-04-28T06:21:24;95133.53;;;12.33;33.86
30819;BME280;17546;42.674;23.284;2023-04-28T06:23:51;95137.53;;;12.32;33.75
30819;BME280;17546;42.674;23.284;2023-04-28T06:26:16;95141.53;;;12.19;33.64
30819;BME280;17546;42.674;23.284;2023-04-28T06:28:42;95134.91;;;12.82;33.25
30819;BME280;17546;42.674;23.284;2023-04-28T06:31:08;95146.41;;;13.35;32.44
30819;BME280;17546;42.674;23.284;2023-04-28T06:33:33;95122.59;;;13.06;32.14
30819;BME280;17546;42.674;23.284;2023-04-28T06:35:58;95140.53;;;13.11;32.35
30819;BME280;17546;42.674;23.284;2023-04-28T06:38:25;95144.75;;;12.67;33.17
30819;BME280;17546;42.674;23.284;2023-04-28T06:40:50;95135.78;;;13.56;31.98
30819;BME280;17546;42.674;23.284;2023-04-28T06:43:16;95140.84;;;13.69;31.60
30819;BME280;17546;42.674;23.284;2023-04-28T06:45:41;95136.28;;;13.32;32.08
30819;BME280;17546;42.674;23.284;2023-04-28T06:48:07;95130.66;;;12.98;32.50
30819;BME280;17546;42.674;23.284;2023-04-28T06:50:32;95139.75;;;13.05;32.62
30819;BME280;17546;42.674;23.284;2023-04-28T06:52:58;95136.03;;;13.41;32.11
30819;BME280;17546;42.674;23.284;2023-04-28T06:55:23;95136.28;;;13.60;31.59
30819;BME280;17546;42.674;23.284;2023-04-28T06:57:52;95142.34;;;13.53;31.11
30819;BME280;17546;42.674;23.284;2023-04-28T07:00:17;95132.75;;;13.54;32.35
30819;BME280;17546;42.674;23.284;2023-04-28T07:02:43;95114.00;;;13.66;31.31
30819;BME280;17546;42.674;23.284;2023-04-28T07:05:08;95133.25;;;13.41;31.52
30819;BME280;17546;42.674;23.284;2023-04-28T07:07:34;95133.00;;;13.45;31.37
30819;BME280;17546;42.674;23.284;2023-04-28T07:10:00;95137.34;;;14.44;30.86
30819;BME280;17546;42.674;23.284;2023-04-28T07:12:26;95110.69;;;14.54;29.69
30819;BME280;17546;42.674;23.284;2023-04-28T07:14:52;95127.91;;;15.11;29.49
30819;BME280;17546;42.674;23.284;2023-04-28T07:17:17;95132.28;;;15.67;28.73
30819;BME280;17546;42.674;23.284;2023-04-28T07:19:43;95132.25;;;16.03;28.79
30819;BME280;17546;42.674;23.284;2023-04-28T07:22:08;95132.69;;;16.31;28.44
30819;BME280;17546;42.674;23.284;2023-04-28T07:24:33;95135.41;;;15.58;28.67
30819;BME280;17546;42.674;23.284;2023-04-28T07:26:59;95129.53;;;15.91;28.25
30819;BME280;17546;42.674;23.284;2023-04-28T07:29:26;95126.38;;;16.69;27.83
30819;BME280;17546;42.674;23.284;2023-04-28T07:31:53;95136.69;;;16.80;27.80
30819;BME280;17546;42.674;23.284;2023-04-28T07:34:18;95129.81;;;16.37;27.78
30819;BME280;17546;42.674;23.284;2023-04-28T07:36:44;95113.72;;;16.87;27.20
30819;BME280;17546;42.674;23.284;2023-04-28T07:39:09;95126.06;;;16.35;27.71
30819;BME280;17546;42.674;23.284;2023-04-28T07:41:38;95117.28;;;16.25;27.42
30819;BME280;17546;42.674;23.284;2023-04-28T07:44:06;95127.34;;;16.96;26.40
30819;BME280;17546;42.674;23.284;2023-04-28T07:46:34;95118.59;;;16.18;26.83
30819;BME280;17546;42.674;23.284;2023-04-28T07:49:04;95119.31;;;17.06;26.51
30819;BME280;17546;42.674;23.284;2023-04-28T07:51:30;95115.88;;;17.13;25.87
30819;BME280;17546;42.674;23.284;2023-04-28T07:53:55;95113.84;;;17.46;26.49
30819;BME280;17546;42.674;23.284;2023-04-28T07:56:21;95120.88;;;17.52;26.01
30819;BME280;17546;42.674;23.284;2023-04-28T07:58:47;95104.13;;;17.79;25.78
30819;BME280;17546;42.674;23.284;2023-04-28T08:01:12;95123.84;;;18.46;25.54
30819;BME280;17546;42.674;23.284;2023-04-28T08:03:37;95126.19;;;18.68;24.60
30819;BME280;17546;42.674;23.284;2023-04-28T08:06:03;95106.97;;;18.72;23.95
30819;BME280;17546;42.674;23.284;2023-04-28T08:08:29;95126.66;;;18.32;24.17
30819;BME280;17546;42.674;23.284;2023-04-28T08:10:55;95118.47;;;18.34;24.22
30819;BME280;17546;42.674;23.284;2023-04-28T08:13:21;95121.78;;;18.59;24.20
30819;BME280;17546;42.674;23.284;2023-04-28T08:15:47;95126.97;;;19.16;24.65
30819;BME280;17546;42.674;23.284;2023-04-28T08:18:13;95116.69;;;18.71;23.74
30819;BME280;17546;42.674;23.284;2023-04-28T08:20:39;95112.72;;;19.14;23.24
30819;BME280;17546;42.674;23.284;2023-04-28T08:23:07;95124.03;;;18.61;23.43
30819;BME280;17546;42.674;23.284;2023-04-28T08:25:33;95107.63;;;18.92;23.85
30819;BME280;17546;42.674;23.284;2023-04-28T08:28:02;95121.81;;;19.07;23.11
30819;BME280;17546;42.674;23.284;2023-04-28T08:30:28;95126.22;;;19.71;23.45
30819;BME280;17546;42.674;23.284;2023-04-28T08:32:54;95121.41;;;19.58;22.91
30819;BME280;17546;42.674;23.284;2023-04-28T08:35:20;95121.13;;;19.91;22.11
30819;BME280;17546;42.674;23.284;2023-04-28T08:37:45;95112.75;;;19.56;22.39
30819;BME280;17546;42.674;23.284;2023-04-28T08:40:13;95111.06;;;19.95;22.25
30819;BME280;17546;42.674;23.284;2023-04-28T08:42:40;95114.69;;;19.06;23.19
30819;BME280;17546;42.674;23.284;2023-04-28T08:45:13;95123.00;;;19.33;23.25
30819;BME280;17546;42.674;23.284;2023-04-28T08:47:42;95109.13;;;19.27;23.05
30819;BME280;17546;42.674;23.284;2023-04-28T08:50:12;95111.72;;;19.67;22.84
30819;BME280;17546;42.674;23.284;2023-04-28T08:52:39;95095.06;;;19.90;22.81
30819;BME280;17546;42.674;23.284;2023-04-28T08:55:08;95108.00;;;20.14;22.40
30819;BME280;17546;42.674;23.284;2023-04-28T08:57:41;95111.72;;;18.91;22.76
30819;BME280;17546;42.674;23.284;2023-04-28T09:00:08;95108.19;;;18.50;23.93
30819;BME280;17546;42.674;23.284;2023-04-28T09:02:34;95104.41;;;19.43;22.95
30819;BME280;17546;42.674;23.284;2023-04-28T09:05:02;95095.81;;;19.49;23.14
30819;BME280;17546;42.674;23.284;2023-04-28T09:07:28;95104.25;;;19.28;23.07
30819;BME280;17546;42.674;23.284;2023-04-28T09:10:20;95094.94;;;19.75;22.21
30819;BME280;17546;42.674;23.284;2023-04-28T09:12:47;95063.38;;;19.69;22.45
30819;BME280;17546;42.674;23.284;2023-04-28T09:15:34;95082.75;;;19.93;22.54
30819;BME280;17546;42.674;23.284;2023-04-28T09:18:02;95054.78;;;19.67;22.15
30819;BME280;17546;42.674;23.284;2023-04-28T09:20:32;95071.69;;;20.24;22.68
30819;BME280;17546;42.674;23.284;2023-04-28T09:25:36;95085.63;;;20.66;21.75
30819;BME280;17546;42.674;23.284;2023-04-28T09:28:21;95075.59;;;20.94;21.53
30819;BME280;17546;42.674;23.284;2023-04-28T09:30:47;95054.81;;;20.24;21.31
30819;BME280;17546;42.674;23.284;2023-04-28T09:33:12;95043.13;;;20.49;21.51
30819;BME280;17546;42.674;23.284;2023-04-28T09:35:42;95056.16;;;20.67;21.16
30819;BME280;17546;42.674;23.284;2023-04-28T09:38:10;95055.09;;;20.13;21.93
30819;BME280;17546;42.674;23.284;2023-04-28T09:43:31;95052.91;;;20.19;22.28
30819;BME280;17546;42.674;23.284;2023-04-28T09:46:02;95050.03;;;20.40;21.68
30819;BME280;17546;42.674;23.284;2023-04-28T09:48:28;95052.91;;;21.07;22.47
30819;BME280;17546;42.674;23.284;2023-04-28T09:50:54;95056.22;;;20.82;21.44
30819;BME280;17546;42.674;23.284;2023-04-28T09:53:22;95048.56;;;20.54;21.67
30819;BME280;17546;42.674;23.284;2023-04-28T09:55:51;95045.81;;;21.29;20.87
30819;BME280;17546;42.674;23.284;2023-04-28T09:58:19;95051.53;;;20.85;20.93
30819;BME280;17546;42.674;23.284;2023-04-28T10:00:45;95049.44;;;20.41;21.34
30819;BME280;17546;42.674;23.284;2023-04-28T10:03:13;95034.50;;;21.06;20.64
30819;BME280;17546;42.674;23.284;2023-04-28T10:05:39;95041.66;;;21.15;20.91
30819;BME280;17546;42.674;23.284;2023-04-28T10:08:05;95031.91;;;21.23;20.83
30819;BME280;17546;42.674;23.284;2023-04-28T10:10:31;95029.66;;;21.37;20.85
30819;BME280;17546;42.674;23.284;2023-04-28T10:12:57;95012.00;;;21.21;20.87
30819;BME280;17546;42.674;23.284;2023-04-28T10:15:23;95007.50;;;21.87;20.87
30819;BME280;17546;42.674;23.284;2023-04-28T10:17:50;95013.53;;;21.76;20.46
30819;BME280;17546;42.674;23.284;2023-04-28T10:20:17;95017.09;;;21.31;19.97
30819;BME280;17546;42.674;23.284;2023-04-28T10:25:34;95025.22;;;21.50;20.60
30819;BME280;17546;42.674;23.284;2023-04-28T10:28:05;95022.56;;;21.44;20.60
30819;BME280;17546;42.674;23.284;2023-04-28T10:30:31;95006.03;;;21.56;20.11
30819;BME280;17546;42.674;23.284;2023-04-28T10:40:51;94994.94;;;21.50;19.63
30819;BME280;17546;42.674;23.284;2023-04-28T10:49:00;94988.53;;;21.73;19.87
30819;BME280;17546;42.674;23.284;2023-04-28T10:56:27;94978.97;;;21.60;20.72
30819;BME280;17546;42.674;23.284;2023-04-28T10:58:57;94976.91;;;21.53;19.85
30819;BME280;17546;42.674;23.284;2023-04-28T11:01:24;94976.91;;;21.53;19.14
30819;BME280;17546;42.674;23.284;2023-04-28T11:06:39;94969.56;;;21.65;19.95
30819;BME280;17546;42.674;23.284;2023-04-28T11:12:05;94966.38;;;21.61;20.25
30819;BME280;17546;42.674;23.284;2023-04-28T11:14:32;94940.25;;;20.84;20.83
30819;BME280;17546;42.674;23.284;2023-04-28T11:17:07;94961.13;;;21.35;20.55
30819;BME280;17546;42.674;23.284;2023-04-28T11:19:43;94963.34;;;21.75;20.27
30819;BME280;17546;42.674;23.284;2023-04-28T11:24:54;94972.00;;;21.31;19.40
30819;BME280;17546;42.674;23.284;2023-04-28T11:27:32;94952.31;;;21.46;20.06
30819;BME280;17546;42.674;23.284;2023-04-28T11:29:58;94957.81;;;22.23;19.52
30819;BME280;17546;42.674;23.284;2023-04-28T11:32:30;94959.31;;;22.08;19.49
30819;BME280;17546;42.674;23.284;2023-04-28T11:34:56;94945.81;;;20.61;19.53
30819;BME280;17546;42.674;23.284;2023-04-28T11:37:21;94950.75;;;21.14;19.24
30819;BME280;17546;42.674;23.284;2023-04-28T11:39:47;94944.41;;;21.21;19.70
30819;BME280;17546;42.674;23.284;2023-04-28T11:42:13;94936.53;;;21.28;19.86
30819;BME280;17546;42.674;23.284;2023-04-28T11:44:38;94945.06;;;21.91;19.80
30819;BME280;17546;42.674;23.284;2023-04-28T11:47:05;94944.03;;;21.48;19.48
30819;BME280;17546;42.674;23.284;2023-04-28T11:49:42;94937.56;;;21.86;19.94
30819;BME280;17546;42.674;23.284;2023-04-28T11:52:08;94936.25;;;21.87;19.77
30819;BME280;17546;42.674;23.284;2023-04-28T11:54:35;94940.69;;;22.13;19.40
30819;BME280;17546;42.674;23.284;2023-04-28T11:57:02;94935.91;;;21.75;19.51
30819;BME280;17546;42.674;23.284;2023-04-28T11:59:32;94945.47;;;22.43;19.38
30819;BME280;17546;42.674;23.284;2023-04-28T12:02:05;94921.06;;;22.31;18.79
30819;BME280;17546;42.674;23.284;2023-04-28T12:04:31;94937.47;;;22.65;18.60
30819;BME280;17546;42.674;23.284;2023-04-28T12:07:14;94927.03;;;23.08;18.65
30819;BME280;17546;42.674;23.284;2023-04-28T12:09:42;94922.47;;;22.55;18.56
30819;BME280;17546;42.674;23.284;2023-04-28T12:12:09;94922.63;;;22.64;18.73
30819;BME280;17546;42.674;23.284;2023-04-28T12:15:05;94920.78;;;23.17;18.77
30819;BME280;17546;42.674;23.284;2023-04-28T12:17:37;94912.00;;;23.30;19.13
30819;BME280;17546;42.674;23.284;2023-04-28T12:20:05;94903.88;;;23.09;19.38
30819;BME280;17546;42.674;23.284;2023-04-28T12:22:45;94898.59;;;23.06;19.29
30819;BME280;17546;42.674;23.284;2023-04-28T12:25:13;94894.34;;;23.22;18.77
30819;BME280;17546;42.674;23.284;2023-04-28T12:27:56;94907.50;;;23.87;18.83
30819;BME280;17546;42.674;23.284;2023-04-28T12:30:26;94897.69;;;23.88;18.28
30819;BME280;17546;42.674;23.284;2023-04-28T12:32:52;94893.63;;;23.57;17.80
30819;BME280;17546;42.674;23.284;2023-04-28T12:35:21;94893.88;;;22.10;19.83
30819;BME280;17546;42.674;23.284;2023-04-28T12:37:46;94895.38;;;22.84;18.76
30819;BME280;17546;42.674;23.284;2023-04-28T12:40:11;94904.38;;;22.17;18.99
30819;BME280;17546;42.674;23.284;2023-04-28T12:42:38;94898.56;;;22.56;19.53
30819;BME280;17546;42.674;23.284;2023-04-28T12:45:05;94891.75;;;22.92;19.13
30819;BME280;17546;42.674;23.284;2023-04-28T12:47:31;94882.47;;;22.74;19.17
30819;BME280;17546;42.674;23.284;2023-04-28T12:49:57;94880.09;;;23.38;18.79
30819;BME280;17546;42.674;23.284;2023-04-28T12:52:22;94888.69;;;23.82;18.50
30819;BME280;17546;42.674;23.284;2023-04-28T12:54:48;94886.66;;;23.58;18.58
30819;BME280;17546;42.674;23.284;2023-04-28T12:57:17;94872.44;;;23.30;18.00
30819;BME280;17546;42.674;23.284;2023-04-28T12:59:44;94861.91;;;23.66;18.82
30819;BME280;17546;42.674;23.284;2023-04-28T13:02:09;94854.94;;;22.99;18.45
30819;BME280;17546;42.674;23.284;2023-04-28T13:04:36;94858.56;;;23.60;19.03
30819;BME280;17546;42.674;23.284;2023-04-28T13:07:01;94858.28;;;23.13;18.72
30819;BME280;17546;42.674;23.284;2023-04-28T13:09:27;94843.00;;;22.33;18.96
30819;BME280;17546;42.674;23.284;2023-04-28T13:11:53;94861.59;;;22.69;19.14
30819;BME280;17546;42.674;23.284;2023-04-28T13:14:19;94842.75;;;22.97;18.87
30819;BME280;17546;42.674;23.284;2023-04-28T13:16:51;94859.81;;;22.81;19.07
30819;BME280;17546;42.674;23.284;2023-04-28T13:19:16;94853.97;;;22.79;19.48
30819;BME280;17546;42.674;23.284;2023-04-28T13:21:43;94847.44;;;23.02;19.93
30819;BME280;17546;42.674;23.284;2023-04-28T13:24:11;94846.28;;;23.05;19.46
30819;BME280;17546;42.674;23.284;2023-04-28T13:26:38;94853.28;;;23.21;19.17